sensor_id;sensor_type;location;lat;lon;timestamp;pressure;altitude;pressure_sealevel;temperature;humidity
76853;BME280;65825;52.232;10.566;2023-04-29T00:00:55;100109.09;;;12.95;96.17
76853;BME280;65825;52.232;10.566;2023-04-29T00:03:20;100100.28;;;12.94;96.08
76853;BME280;65825;52.232;10.566;2023-04-29T00:05:46;100102.78;;;12.80;97.24
76853;BME280;65825;52.232;10.566;2023-04-29T00:08:11;100105.19;;;12.85;96.82
76853;BME280;65825;52.232;10.566;2023-04-29T00:10:36;100106.97;;;12.84;96.69
76853;BME280;65825;52.232;10.566;2023-04-29T00:13:02;100097.53;;;12.79;97.12
76853;BME280;65825;52.232;10.566;2023-04-29T00:15:27;100096.97;;;12.72;97.75
76853;BME280;65825;52.232;10.566;2023-04-29T00:17:53;100101.88;;;12.63;99.61
76853;BME280;65825;52.232;10.566;2023-04-29T00:20:18;100101.09;;;12.61;100.00
76853;BME280;65825;52.232;10.566;2023-04-29T00:22:43;100099.63;;;12.72;99.58
76853;BME280;65825;52.232;10.566;2023-04-29T00:25:09;100096.91;;;12.74;98.60
76853;BME280;65825;52.232;10.566;2023-04-29T00:27:34;100101.19;;;12.76;98.07
76853;BME280;65825;52.232;10.566;2023-04-29T00:30:00;100104.63;;;12.78;98.63
76853;BME280;65825;52.232;10.566;2023-04-29T00:32:25;100109.59;;;12.67;99.07
76853;BME280;65825;52.232;10.566;2023-04-29T00:34:50;100101.88;;;12.63;99.97
76853;BME280;65825;52.232;10.566;2023-04-29T00:37:15;100105.22;;;12.66;98.50
76853;BME280;65825;52.232;10.566;2023-04-29T00:39:41;100110.00;;;12.77;97.78
76853;BME280;65825;52.232;10.566;2023-04-29T00:42:07;100106.50;;;12.76;97.42
76853;BME280;65825;52.232;10.566;2023-04-29T00:44:32;100111.47;;;12.65;98.43
76853;BME280;65825;52.232;10.566;2023-04-29T00:46:57;100116.19;;;12.59;98.44
76853;BME280;65825;52.232;10.566;2023-04-29T00:49:23;100115.19;;;12.61;98.15
76853;BME280;65825;52.232;10.566;2023-04-29T00:51:49;100115.81;;;12.66;97.40
76853;BME280;65825;52.232;10.566;2023-04-29T00:54:14;100116.06;;;12.62;97.64
76853;BME280;65825;52.232;10.566;2023-04-29T00:56:42;100122.09;;;12.47;98.01
76853;BME280;65825;52.232;10.566;2023-04-29T00:59:09;100117.66;;;12.47;98.36
76853;BME280;65825;52.232;10.566;2023-04-29T01:01:37;100122.38;;;12.41;98.42
76853;BME280;65825;52.232;10.566;2023-04-29T01:04:04;100116.50;;;12.53;96.88
76853;BME280;65825;52.232;10.566;2023-04-29T01:06:41;100126.28;;;12.51;97.63
76853;BME280;65825;52.232;10.566;2023-04-29T01:12:17;100128.06;;;12.33;98.01
76853;BME280;65825;52.232;10.566;2023-04-29T01:14:48;100122.84;;;12.32;98.03
76853;BME280;65825;52.232;10.566;2023-04-29T01:17:18;100132.41;;;12.34;97.12
76853;BME280;65825;52.232;10.566;2023-04-29T01:19:49;100128.25;;;12.29;97.18
76853;BME280;65825;52.232;10.566;2023-04-29T01:22:16;100141.41;;;12.30;96.43
76853;BME280;65825;52.232;10.566;2023-04-29T01:24:43;100138.72;;;12.32;96.96
76853;BME280;65825;52.232;10.566;2023-04-29T01:27:27;100133.97;;;12.20;96.65
76853;BME280;65825;52.232;10.566;2023-04-29T01:32:40;100139.38;;;12.18;96.87
76853;BME280;65825;52.232;10.566;2023-04-29T01:35:16;100138.91;;;12.27;96.68
76853;BME280;65825;52.232;10.566;2023-04-29T01:37:48;100141.13;;;12.18;96.73
76853;BME280;65825;52.232;10.566;2023-04-29T01:40:22;100149.50;;;12.09;96.99
76853;BME280;65825;52.232;10.566;2023-04-29T01:43:01;100148.56;;;12.10;96.64
76853;BME280;65825;52.232;10.566;2023-04-29T01:45:29;100148.19;;;12.17;95.90
76853;BME280;65825;52.232;10.566;2023-04-29T01:47:56;100151.44;;;12.05;96.12
76853;BME280;65825;52.232;10.566;2023-04-29T01:50:23;100153.44;;;12.00;96.53
76853;BME280;65825;52.232;10.566;2023-04-29T01:52:48;100160.78;;;11.94;96.46
76853;BME280;65825;52.232;10.566;2023-04-29T01:55:14;100164.34;;;11.93;96.05
76853;BME280;65825;52.232;10.566;2023-04-29T01:58:10;100159.59;;;12.01;95.90
76853;BME280;65825;52.232;10.566;2023-04-29T02:00:35;100166.56;;;11.83;96.62
76853;BME280;65825;52.232;10.566;2023-04-29T02:03:02;100163.03;;;11.83;96.59
76853;BME280;65825;52.232;10.566;2023-04-29T02:05:27;100165.28;;;11.92;95.12
76853;BME280;65825;52.232;10.566;2023-04-29T02:07:56;100172.69;;;11.84;96.17
76853;BME280;65825;52.232;10.566;2023-04-29T02:10:21;100172.44;;;11.90;95.06
76853;BME280;65825;52.232;10.566;2023-04-29T02:12:46;100177.44;;;11.96;94.66
76853;BME280;65825;52.232;10.566;2023-04-29T02:15:12;100178.03;;;12.02;94.59
76853;BME280;65825;52.232;10.566;2023-04-29T02:17:37;100180.16;;;11.94;94.71
76853;BME280;65825;52.232;10.566;2023-04-29T02:20:03;100183.28;;;11.84;95.86
76853;BME280;65825;52.232;10.566;2023-04-29T02:22:28;100183.81;;;11.92;94.88
76853;BME280;65825;52.232;10.566;2023-04-29T02:24:53;100188.03;;;11.96;95.14
76853;BME280;65825;52.232;10.566;2023-04-29T02:27:18;100189.44;;;11.84;95.59
76853;BME280;65825;52.232;10.566;2023-04-29T02:29:44;100193.34;;;11.76;96.17
76853;BME280;65825;52.232;10.566;2023-04-29T02:32:09;100195.59;;;11.85;95.69
76853;BME280;65825;52.232;10.566;2023-04-29T02:34:34;100192.66;;;11.91;95.07
76853;BME280;65825;52.232;10.566;2023-04-29T02:37:00;100205.91;;;11.71;96.45
76853;BME280;65825;52.232;10.566;2023-04-29T02:39:25;100205.59;;;11.57;98.28
76853;BME280;65825;52.232;10.566;2023-04-29T02:41:53;100203.66;;;11.62;98.45
76853;BME280;65825;52.232;10.566;2023-04-29T02:44:19;100203.97;;;11.54;98.81
76853;BME280;65825;52.232;10.566;2023-04-29T02:46:44;100206.13;;;11.66;98.84
76853;BME280;65825;52.232;10.566;2023-04-29T02:49:11;100200.69;;;11.69;97.83
76853;BME280;65825;52.232;10.566;2023-04-29T02:51:37;100197.19;;;11.69;98.28
76853;BME280;65825;52.232;10.566;2023-04-29T02:54:03;100205.13;;;11.69;98.83
76853;BME280;65825;52.232;10.566;2023-04-29T02:56:28;100216.34;;;11.54;99.29
76853;BME280;65825;52.232;10.566;2023-04-29T02:58:53;100197.88;;;11.52;99.30
76853;BME280;65825;52.232;10.566;2023-04-29T03:01:19;100206.00;;;11.48;99.54
76853;BME280;65825;52.232;10.566;2023-04-29T03:03:44;100203.50;;;11.45;100.00
76853;BME280;65825;52.232;10.566;2023-04-29T03:06:10;100208.84;;;11.43;100.00
76853;BME280;65825;52.232;10.566;2023-04-29T03:08:35;100208.84;;;11.43;100.00
76853;BME280;65825;52.232;10.566;2023-04-29T03:11:01;100208.47;;;11.52;100.00
76853;BME280;65825;52.232;10.566;2023-04-29T03:13:26;100214.84;;;11.47;100.00
76853;BME280;65825;52.232;10.566;2023-04-29T03:15:52;100213.16;;;11.46;100.00
76853;BME280;65825;52.232;10.566;2023-04-29T03:18:17;100213.53;;;11.37;100.00
76853;BME280;65825;52.232;10.566;2023-04-29T03:20:42;100214.00;;;11.46;100.00
76853;BME280;65825;52.232;10.566;2023-04-29T03:23:07;100220.06;;;11.28;100.00
76853;BME280;65825;52.232;10.566;2023-04-29T03:25:33;100211.63;;;11.20;100.00
76853;BME280;65825;52.232;10.566;2023-04-29T03:27:58;100218.41;;;11.26;100.00
76853;BME280;65825;52.232;10.566;2023-04-29T03:30:23;100213.84;;;11.29;100.00
76853;BME280;65825;52.232;10.566;2023-04-29T03:32:50;100216.63;;;11.26;100.00
76853;BME280;65825;52.232;10.566;2023-04-29T03:35:15;100216.13;;;11.17;100.00
76853;BME280;65825;52.232;10.566;2023-04-29T03:37:40;100222.34;;;11.16;100.00
76853;BME280;65825;52.232;10.566;2023-04-29T03:40:08;100223.94;;;11.20;100.00
76853;BME280;65825;52.232;10.566;2023-04-29T03:42:34;100232.75;;;10.99;100.00
76853;BME280;65825;52.232;10.566;2023-04-29T03:44:59;100232.13;;;11.14;100.00
76853;BME280;65825;52.232;10.566;2023-04-29T03:47:24;100227.69;;;11.14;100.00
76853;BME280;65825;52.232;10.566;2023-04-29T03:49:49;100232.34;;;11.09;100.00
76853;BME280;65825;52.232;10.566;2023-04-29T03:52:15;100231.34;;;11.12;100.00
76853;BME280;65825;52.232;10.566;2023-04-29T03:54:40;100238.88;;;11.21;99.80
76853;BME280;65825;52.232;10.566;2023-04-29T03:57:06;100238.16;;;10.96;100.00
76853;BME280;65825;52.232;10.566;2023-04-29T03:59:31;100246.53;;;11.07;99.81
76853;BME280;65825;52.232;10.566;2023-04-29T04:01:56;100233.31;;;11.07;99.67
76853;BME280;65825;52.232;10.566;2023-04-29T04:04:22;100246.69;;;11.02;100.00
76853;BME280;65825;52.232;10.566;2023-04-29T04:06:47;100245.63;;;10.85;100.00
76853;BME280;65825;52.232;10.566;2023-04-29T04:09:16;100253.31;;;10.69;100.00
76853;BME280;65825;52.232;10.566;2023-04-29T04:11:42;100264.56;;;10.96;100.00
76853;BME280;65825;52.232;10.566;2023-04-29T04:14:07;100269.72;;;10.99;99.40
76853;BME280;65825;52.232;10.566;2023-04-29T04:16:33;100273.53;;;10.92;99.76
76853;BME280;65825;52.232;10.566;2023-04-29T04:18:58;100277.47;;;10.82;99.83
76853;BME280;65825;52.232;10.566;2023-04-29T04:21:25;100281.16;;;10.99;99.46
76853;BME280;65825;52.232;10.566;2023-04-29T04:23:51;100293.50;;;10.99;97.85
76853;BME280;65825;52.232;10.566;2023-04-29T04:26:17;100288.88;;;10.82;97.44
76853;BME280;65825;52.232;10.566;2023-04-29T04:28:42;100303.69;;;10.86;98.13
76853;BME280;65825;52.232;10.566;2023-04-29T04:31:08;100297.00;;;10.99;95.82
76853;BME280;65825;52.232;10.566;2023-04-29T04:33:33;100304.84;;;10.79;96.86
76853;BME280;65825;52.232;10.566;2023-04-29T04:35:58;100309.00;;;10.85;97.50
76853;BME280;65825;52.232;10.566;2023-04-29T04:38:24;100309.63;;;10.91;96.81
76853;BME280;65825;52.232;10.566;2023-04-29T04:40:50;100316.53;;;10.72;97.72
76853;BME280;65825;52.232;10.566;2023-04-29T04:43:15;100319.38;;;10.68;97.27
76853;BME280;65825;52.232;10.566;2023-04-29T04:45:41;100324.06;;;10.60;97.94
76853;BME280;65825;52.232;10.566;2023-04-29T04:48:07;100330.31;;;10.80;97.01
76853;BME280;65825;52.232;10.566;2023-04-29T04:50:32;100327.66;;;10.57;97.53
76853;BME280;65825;52.232;10.566;2023-04-29T04:52:57;100335.22;;;10.45;98.72
76853;BME280;65825;52.232;10.566;2023-04-29T04:55:23;100332.66;;;10.42;99.23
76853;BME280;65825;52.232;10.566;2023-04-29T04:57:48;100350.22;;;10.43;99.10
76853;BME280;65825;52.232;10.566;2023-04-29T05:00:14;100357.47;;;10.36;99.46
76853;BME280;65825;52.232;10.566;2023-04-29T05:02:40;100352.34;;;10.56;98.17
76853;BME280;65825;52.232;10.566;2023-04-29T05:05:05;100354.38;;;10.50;98.11
76853;BME280;65825;52.232;10.566;2023-04-29T05:07:31;100365.81;;;10.49;98.83
76853;BME280;65825;52.232;10.566;2023-04-29T05:09:59;100372.41;;;10.62;97.85
76853;BME280;65825;52.232;10.566;2023-04-29T05:12:27;100366.41;;;10.57;98.38
76853;BME280;65825;52.232;10.566;2023-04-29T05:14:54;100372.91;;;10.48;97.92
76853;BME280;65825;52.232;10.566;2023-04-29T05:17:20;100383.50;;;10.47;97.97
76853;BME280;65825;52.232;10.566;2023-04-29T05:19:45;100377.56;;;10.40;98.95
76853;BME280;65825;52.232;10.566;2023-04-29T05:22:10;100382.72;;;10.45;98.06
76853;BME280;65825;52.232;10.566;2023-04-29T05:24:35;100383.59;;;10.44;97.97
76853;BME280;65825;52.232;10.566;2023-04-29T05:27:01;100383.75;;;10.16;99.35
76853;BME280;65825;52.232;10.566;2023-04-29T05:29:28;100381.03;;;10.18;100.00
76853;BME280;65825;52.232;10.566;2023-04-29T05:31:53;100392.06;;;10.29;99.88
76853;BME280;65825;52.232;10.566;2023-04-29T05:34:18;100403.81;;;10.45;98.46
76853;BME280;65825;52.232;10.566;2023-04-29T05:36:44;100402.81;;;10.23;99.95
76853;BME280;65825;52.232;10.566;2023-04-29T05:39:09;100403.91;;;10.42;98.59
76853;BME280;65825;52.232;10.566;2023-04-29T05:41:34;100412.03;;;10.60;97.31
76853;BME280;65825;52.232;10.566;2023-04-29T05:43:59;100415.56;;;10.61;97.43
76853;BME280;65825;52.232;10.566;2023-04-29T05:46:25;100421.25;;;10.49;97.96
76853;BME280;65825;52.232;10.566;2023-04-29T05:48:50;100425.13;;;10.63;96.40
76853;BME280;65825;52.232;10.566;2023-04-29T05:51:15;100421.91;;;10.55;96.42
76853;BME280;65825;52.232;10.566;2023-04-29T05:53:41;100430.63;;;10.33;96.89
76853;BME280;65825;52.232;10.566;2023-04-29T05:56:06;100427.50;;;10.22;96.96
76853;BME280;65825;52.232;10.566;2023-04-29T05:58:33;100436.22;;;10.24;96.95
76853;BME280;65825;52.232;10.566;2023-04-29T06:00:58;100444.16;;;10.24;98.05
76853;BME280;65825;52.232;10.566;2023-04-29T06:03:24;100439.16;;;10.41;96.65
76853;BME280;65825;52.232;10.566;2023-04-29T06:05:49;100440.38;;;10.31;97.52
76853;BME280;65825;52.232;10.566;2023-04-29T06:08:15;100453.13;;;10.18;97.58
76853;BME280;65825;52.232;10.566;2023-04-29T06:10:40;100459.06;;;10.25;96.62
76853;BME280;65825;52.232;10.566;2023-04-29T06:13:05;100458.09;;;10.52;94.65
76853;BME280;65825;52.232;10.566;2023-04-29T06:15:31;100466.75;;;10.31;96.20
76853;BME280;65825;52.232;10.566;2023-04-29T06:17:56;100474.38;;;10.40;96.09
76853;BME280;65825;52.232;10.566;2023-04-29T06:20:22;100469.63;;;10.49;95.05
76853;BME280;65825;52.232;10.566;2023-04-29T06:22:47;100476.84;;;10.44;95.35
76853;BME280;65825;52.232;10.566;2023-04-29T06:25:12;100487.84;;;10.57;94.96
76853;BME280;65825;52.232;10.566;2023-04-29T06:27:38;100492.09;;;10.61;94.35
76853;BME280;65825;52.232;10.566;2023-04-29T06:30:04;100497.00;;;10.71;93.53
76853;BME280;65825;52.232;10.566;2023-04-29T06:32:29;100502.13;;;10.76;93.07
76853;BME280;65825;52.232;10.566;2023-04-29T06:34:54;100505.88;;;10.69;92.78
76853;BME280;65825;52.232;10.566;2023-04-29T06:37:20;100507.00;;;10.86;92.09
76853;BME280;65825;52.232;10.566;2023-04-29T06:39:45;100513.66;;;10.98;91.33
76853;BME280;65825;52.232;10.566;2023-04-29T06:42:10;100515.28;;;11.25;89.04
76853;BME280;65825;52.232;10.566;2023-04-29T06:44:35;100513.09;;;11.13;88.46
76853;BME280;65825;52.232;10.566;2023-04-29T06:47:01;100521.72;;;11.18;88.49
76853;BME280;65825;52.232;10.566;2023-04-29T06:49:26;100525.34;;;11.15;88.19
76853;BME280;65825;52.232;10.566;2023-04-29T06:51:51;100530.91;;;11.31;88.22
76853;BME280;65825;52.232;10.566;2023-04-29T06:54:17;100526.44;;;11.33;87.39
76853;BME280;65825;52.232;10.566;2023-04-29T06:56:42;100538.84;;;11.54;86.47
76853;BME280;65825;52.232;10.566;2023-04-29T06:59:07;100546.34;;;11.66;85.73
76853;BME280;65825;52.232;10.566;2023-04-29T07:01:36;100546.19;;;11.46;86.14
76853;BME280;65825;52.232;10.566;2023-04-29T07:04:01;100546.44;;;11.40;86.82
76853;BME280;65825;52.232;10.566;2023-04-29T07:06:26;100557.56;;;11.25;86.27
76853;BME280;65825;52.232;10.566;2023-04-29T07:08:52;100564.31;;;11.09;86.79
76853;BME280;65825;52.232;10.566;2023-04-29T07:11:17;100567.41;;;10.97;87.28
76853;BME280;65825;52.232;10.566;2023-04-29T07:13:43;100568.94;;;11.02;87.17
76853;BME280;65825;52.232;10.566;2023-04-29T07:16:17;100572.25;;;11.09;86.24
76853;BME280;65825;52.232;10.566;2023-04-29T07:18:45;100580.97;;;11.11;87.32
76853;BME280;65825;52.232;10.566;2023-04-29T07:21:10;100590.13;;;11.01;87.13
76853;BME280;65825;52.232;10.566;2023-04-29T07:23:36;100593.28;;;11.12;86.91
76853;BME280;65825;52.232;10.566;2023-04-29T07:26:15;100591.88;;;11.02;86.53
76853;BME280;65825;52.232;10.566;2023-04-29T07:28:41;100602.63;;;10.96;87.23
76853;BME280;65825;52.232;10.566;2023-04-29T07:31:07;100603.22;;;11.04;87.18
76853;BME280;65825;52.232;10.566;2023-04-29T07:33:33;100613.38;;;11.16;87.02
76853;BME280;65825;52.232;10.566;2023-04-29T07:35:58;100615.16;;;11.15;86.25
76853;BME280;65825;52.232;10.566;2023-04-29T07:38:23;100620.31;;;11.18;86.78
76853;BME280;65825;52.232;10.566;2023-04-29T07:40:49;100623.78;;;11.20;86.76
76853;BME280;65825;52.232;10.566;2023-04-29T07:43:14;100625.81;;;11.12;86.71
76853;BME280;65825;52.232;10.566;2023-04-29T07:45:39;100626.41;;;11.45;85.81
76853;BME280;65825;52.232;10.566;2023-04-29T07:48:05;100629.53;;;11.56;84.68
76853;BME280;65825;52.232;10.566;2023-04-29T07:50:33;100634.06;;;12.00;83.03
76853;BME280;65825;52.232;10.566;2023-04-29T07:53:01;100641.81;;;11.81;83.31
76853;BME280;65825;52.232;10.566;2023-04-29T07:55:27;100640.75;;;11.87;83.71
76853;BME280;65825;52.232;10.566;2023-04-29T07:57:54;100650.81;;;11.77;83.17
76853;BME280;65825;52.232;10.566;2023-04-29T08:00:20;100652.72;;;11.74;83.79
76853;BME280;65825;52.232;10.566;2023-04-29T08:02:45;100655.44;;;11.94;82.55
76853;BME280;65825;52.232;10.566;2023-04-29T08:05:11;100658.75;;;11.77;82.75
76853;BME280;65825;52.232;10.566;2023-04-29T08:07:36;100660.75;;;11.94;82.64
76853;BME280;65825;52.232;10.566;2023-04-29T08:10:01;100665.91;;;12.20;82.20
76853;BME280;65825;52.232;10.566;2023-04-29T08:12:26;100669.19;;;12.26;80.48
76853;BME280;65825;52.232;10.566;2023-04-29T08:14:52;100668.84;;;12.78;78.99
76853;BME280;65825;52.232;10.566;2023-04-29T08:17:17;100677.47;;;13.05;76.90
76853;BME280;65825;52.232;10.566;2023-04-29T08:19:42;100676.91;;;13.78;74.92
76853;BME280;65825;52.232;10.566;2023-04-29T08:22:08;100681.00;;;14.42;73.50
76853;BME280;65825;52.232;10.566;2023-04-29T08:24:35;100686.88;;;14.49;73.76
76853;BME280;65825;52.232;10.566;2023-04-29T08:27:00;100690.00;;;14.75;71.60
76853;BME280;65825;52.232;10.566;2023-04-29T08:29:26;100690.66;;;14.62;70.87
76853;BME280;65825;52.232;10.566;2023-04-29T08:31:51;100681.78;;;15.15;69.14
76853;BME280;65825;52.232;10.566;2023-04-29T08:34:17;100689.94;;;15.29;68.94
76853;BME280;65825;52.232;10.566;2023-04-29T08:36:42;100691.56;;;15.32;66.83
76853;BME280;65825;52.232;10.566;2023-04-29T08:39:07;100707.41;;;14.64;68.13
76853;BME280;65825;52.232;10.566;2023-04-29T08:41:35;100710.81;;;14.10;70.53
76853;BME280;65825;52.232;10.566;2023-04-29T08:44:01;100711.88;;;14.06;71.39
76853;BME280;65825;52.232;10.566;2023-04-29T08:46:26;100713.31;;;14.13;71.05
76853;BME280;65825;52.232;10.566;2023-04-29T08:48:52;100721.25;;;13.75;70.40
76853;BME280;65825;52.232;10.566;2023-04-29T08:51:17;100720.16;;;14.74;68.24
76853;BME280;65825;52.232;10.566;2023-04-29T08:53:43;100719.59;;;17.90;59.84
76853;BME280;65825;52.232;10.566;2023-04-29T08:56:12;100718.56;;;20.56;52.32
76853;BME280;65825;52.232;10.566;2023-04-29T08:58:39;100717.72;;;23.06;44.88
76853;BME280;65825;52.232;10.566;2023-04-29T09:01:07;100716.56;;;22.88;44.19
76853;BME280;65825;52.232;10.566;2023-04-29T09:03:41;100708.81;;;21.27;46.83
76853;BME280;65825;52.232;10.566;2023-04-29T09:06:09;100714.44;;;21.35;47.40
76853;BME280;65825;52.232;10.566;2023-04-29T09:08:36;100715.88;;;21.86;45.58
76853;BME280;65825;52.232;10.566;2023-04-29T09:11:02;100721.09;;;21.42;46.40
76853;BME280;65825;52.232;10.566;2023-04-29T09:13:29;100730.19;;;19.42;48.93
76853;BME280;65825;52.232;10.566;2023-04-29T09:15:55;100725.59;;;20.94;47.46
76853;BME280;65825;52.232;10.566;2023-04-29T09:18:46;100722.66;;;25.35;35.08
76853;BME280;65825;52.232;10.566;2023-04-29T09:23:55;100723.22;;;21.02;44.98
76853;BME280;65825;52.232;10.566;2023-04-29T09:26:21;100727.78;;;19.64;48.84
76853;BME280;65825;52.232;10.566;2023-04-29T09:29:08;100734.84;;;20.17;47.64
76853;BME280;65825;52.232;10.566;2023-04-29T09:31:34;100744.06;;;19.08;48.49
76853;BME280;65825;52.232;10.566;2023-04-29T09:33:59;100742.94;;;18.98;49.39
76853;BME280;65825;52.232;10.566;2023-04-29T09:36:44;100750.16;;;18.28;48.75
76853;BME280;65825;52.232;10.566;2023-04-29T09:39:14;100742.75;;;18.47;50.67
76853;BME280;65825;52.232;10.566;2023-04-29T09:41:56;100740.13;;;18.31;50.71
76853;BME280;65825;52.232;10.566;2023-04-29T09:44:29;100746.09;;;17.93;51.91
76853;BME280;65825;52.232;10.566;2023-04-29T09:47:06;100759.88;;;17.42;50.68
76853;BME280;65825;52.232;10.566;2023-04-29T09:49:36;100752.81;;;17.70;50.20
76853;BME280;65825;52.232;10.566;2023-04-29T09:52:04;100763.69;;;18.25;50.27
76853;BME280;65825;52.232;10.566;2023-04-29T09:54:31;100759.06;;;20.15;45.09
76853;BME280;65825;52.232;10.566;2023-04-29T09:56:58;100755.53;;;22.17;41.49
76853;BME280;65825;52.232;10.566;2023-04-29T09:59:24;100757.13;;;23.61;37.24
76853;BME280;65825;52.232;10.566;2023-04-29T10:01:52;100755.19;;;23.09;40.01
76853;BME280;65825;52.232;10.566;2023-04-29T10:04:19;100753.06;;;21.68;42.01
76853;BME280;65825;52.232;10.566;2023-04-29T10:06:45;100758.53;;;20.96;45.17
76853;BME280;65825;52.232;10.566;2023-04-29T10:09:13;100766.56;;;19.71;43.69
76853;BME280;65825;52.232;10.566;2023-04-29T10:11:41;100773.31;;;19.38;47.48
76853;BME280;65825;52.232;10.566;2023-04-29T10:14:07;100771.47;;;18.57;46.67
76853;BME280;65825;52.232;10.566;2023-04-29T10:16:39;100771.25;;;22.45;40.10
76853;BME280;65825;52.232;10.566;2023-04-29T10:19:09;100772.94;;;27.85;30.49
76853;BME280;65825;52.232;10.566;2023-04-29T10:21:36;100764.72;;;24.49;34.85
76853;BME280;65825;52.232;10.566;2023-04-29T10:24:02;100768.31;;;22.70;37.77
76853;BME280;65825;52.232;10.566;2023-04-29T10:26:28;100764.06;;;23.32;37.91
76853;BME280;65825;52.232;10.566;2023-04-29T10:28:55;100767.19;;;22.39;40.17
76853;BME280;65825;52.232;10.566;2023-04-29T10:31:20;100765.81;;;21.07;41.90
76853;BME280;65825;52.232;10.566;2023-04-29T10:33:47;100767.53;;;20.09;43.46
76853;BME280;65825;52.232;10.566;2023-04-29T10:36:12;100768.44;;;19.83;43.95
76853;BME280;65825;52.232;10.566;2023-04-29T10:38:42;100767.50;;;19.58;44.22
76853;BME280;65825;52.232;10.566;2023-04-29T10:41:25;100776.47;;;19.04;45.67
76853;BME280;65825;52.232;10.566;2023-04-29T10:43:54;100777.19;;;18.23;47.66
76853;BME280;65825;52.232;10.566;2023-04-29T10:46:24;100788.34;;;17.57;49.49
76853;BME280;65825;52.232;10.566;2023-04-29T10:48:59;100791.75;;;17.14;49.42
76853;BME280;65825;52.232;10.566;2023-04-29T10:54:02;100788.56;;;17.23;49.54
76853;BME280;65825;52.232;10.566;2023-04-29T10:56:48;100800.44;;;16.71;50.29
76853;BME280;65825;52.232;10.566;2023-04-29T10:59:43;100793.84;;;16.28;52.51
76853;BME280;65825;52.232;10.566;2023-04-29T11:02:08;100790.09;;;16.15;52.73
76853;BME280;65825;52.232;10.566;2023-04-29T11:04:34;100795.69;;;15.60;54.93
76853;BME280;65825;52.232;10.566;2023-04-29T11:06:59;100799.41;;;15.39;54.39
76853;BME280;65825;52.232;10.566;2023-04-29T11:09:28;100797.41;;;16.12;53.31
76853;BME280;65825;52.232;10.566;2023-04-29T11:11:59;100795.06;;;16.55;52.79
76853;BME280;65825;52.232;10.566;2023-04-29T11:14:29;100795.00;;;17.03;52.89
76853;BME280;65825;52.232;10.566;2023-04-29T11:17:00;100798.28;;;17.39;50.64
76853;BME280;65825;52.232;10.566;2023-04-29T11:19:31;100801.19;;;17.50;49.53
76853;BME280;65825;52.232;10.566;2023-04-29T11:24:55;100802.16;;;18.22;47.89
76853;BME280;65825;52.232;10.566;2023-04-29T11:27:23;100795.53;;;18.71;47.17
76853;BME280;65825;52.232;10.566;2023-04-29T11:29:51;100797.56;;;18.68;46.63
76853;BME280;65825;52.232;10.566;2023-04-29T11:32:24;100802.59;;;18.72;46.45
76853;BME280;65825;52.232;10.566;2023-04-29T11:34:51;100804.69;;;18.95;45.48
76853;BME280;65825;52.232;10.566;2023-04-29T11:37:21;100806.50;;;19.35;44.49
76853;BME280;65825;52.232;10.566;2023-04-29T11:39:48;100796.00;;;29.42;27.34
76853;BME280;65825;52.232;10.566;2023-04-29T11:42:19;100797.94;;;25.49;32.74
76853;BME280;65825;52.232;10.566;2023-04-29T11:44:44;100787.59;;;23.30;35.35
76853;BME280;65825;52.232;10.566;2023-04-29T11:47:10;100792.91;;;21.51;39.50
76853;BME280;65825;52.232;10.566;2023-04-29T11:49:35;100808.28;;;20.14;41.75
76853;BME280;65825;52.232;10.566;2023-04-29T11:52:02;100810.88;;;18.96;43.62
76853;BME280;65825;52.232;10.566;2023-04-29T11:54:29;100813.06;;;18.19;45.43
76853;BME280;65825;52.232;10.566;2023-04-29T11:56:55;100814.69;;;18.22;46.26
76853;BME280;65825;52.232;10.566;2023-04-29T11:59:21;100819.81;;;17.81;46.41
76853;BME280;65825;52.232;10.566;2023-04-29T12:01:48;100822.41;;;17.83;47.66
76853;BME280;65825;52.232;10.566;2023-04-29T12:04:13;100816.09;;;16.92;49.85
76853;BME280;65825;52.232;10.566;2023-04-29T12:06:39;100820.25;;;17.44;48.89
76853;BME280;65825;52.232;10.566;2023-04-29T12:09:05;100819.53;;;18.15;47.34
76853;BME280;65825;52.232;10.566;2023-04-29T12:11:31;100818.41;;;19.97;43.92
76853;BME280;65825;52.232;10.566;2023-04-29T12:13:56;100824.09;;;18.71;44.50
76853;BME280;65825;52.232;10.566;2023-04-29T12:16:22;100819.56;;;17.56;47.31
76853;BME280;65825;52.232;10.566;2023-04-29T12:18:53;100816.34;;;16.88;49.17
76853;BME280;65825;52.232;10.566;2023-04-29T12:21:18;100832.25;;;16.74;50.76
76853;BME280;65825;52.232;10.566;2023-04-29T12:23:44;100826.91;;;16.41;51.58
76853;BME280;65825;52.232;10.566;2023-04-29T12:26:10;100834.28;;;15.68;53.85
76853;BME280;65825;52.232;10.566;2023-04-29T12:28:36;100837.31;;;15.61;54.96
76853;BME280;65825;52.232;10.566;2023-04-29T12:31:02;100841.25;;;16.22;52.16
76853;BME280;65825;52.232;10.566;2023-04-29T12:33:28;100831.84;;;16.49;50.37
76853;BME280;65825;52.232;10.566;2023-04-29T12:35:56;100834.75;;;16.77;50.02
76853;BME280;65825;52.232;10.566;2023-04-29T12:38:29;100836.00;;;17.18;48.39
76853;BME280;65825;52.232;10.566;2023-04-29T12:40:56;100838.13;;;17.58;48.25
76853;BME280;65825;52.232;10.566;2023-04-29T12:43:26;100838.72;;;17.32;47.83
76853;BME280;65825;52.232;10.566;2023-04-29T12:45:59;100843.94;;;16.71;48.84
76853;BME280;65825;52.232;10.566;2023-04-29T12:48:29;100846.94;;;16.31;48.60
76853;BME280;65825;52.232;10.566;2023-04-29T12:50:55;100836.41;;;16.62;49.48